createdAt,value
2019-03-13T00:02:17.619Z,2.87
2019-03-13T00:04:47.051Z,2.23
2019-03-13T00:07:16.573Z,3.00
2019-03-13T00:09:46.016Z,4.10
2019-03-13T00:12:16.545Z,3.33
2019-03-13T00:14:46.056Z,3.80
2019-03-13T00:17:15.513Z,3.20
2019-03-13T00:19:44.953Z,5.47
2019-03-13T00:22:14.549Z,3.77
2019-03-13T00:24:43.985Z,4.40
2019-03-13T00:27:13.453Z,4.10
2019-03-13T00:29:42.896Z,4.73
2019-03-13T00:32:13.192Z,4.03
2019-03-13T00:34:42.635Z,4.07
2019-03-13T00:37:12.099Z,4.30
2019-03-13T00:39:41.562Z,6.47
2019-03-13T00:42:12.623Z,6.27
2019-03-13T00:44:42.078Z,8.23
2019-03-13T00:47:11.521Z,5.47
2019-03-13T00:49:40.977Z,4.03
2019-03-13T00:52:10.417Z,5.53
2019-03-13T00:54:39.883Z,4.87
2019-03-13T00:57:09.317Z,5.40
2019-03-13T00:59:38.790Z,4.63
2019-03-13T01:02:12.541Z,4.80
2019-03-13T01:04:46.361Z,7.17
2019-03-13T01:07:15.789Z,9.70
2019-03-13T01:09:46.329Z,6.60
2019-03-13T01:12:15.769Z,3.63
2019-03-13T01:14:45.230Z,5.73
2019-03-13T01:17:14.665Z,8.10
2019-03-13T01:19:44.202Z,9.07
2019-03-13T01:22:13.650Z,7.00
2019-03-13T01:24:43.110Z,9.40
2019-03-13T01:27:12.546Z,5.53
2019-03-13T01:29:42.006Z,9.20
2019-03-13T01:32:13.098Z,6.10
2019-03-13T01:34:44.193Z,6.37
2019-03-13T01:37:13.628Z,6.57
2019-03-13T01:39:43.093Z,6.73
2019-03-13T01:42:12.606Z,5.37
2019-03-13T01:44:42.074Z,6.67
2019-03-13T01:47:11.513Z,8.87
2019-03-13T01:49:40.974Z,10.37
2019-03-13T01:52:10.417Z,5.87
2019-03-13T01:54:39.873Z,11.07
2019-03-13T01:57:09.316Z,5.90
2019-03-13T01:59:38.786Z,11.70
2019-03-13T02:02:08.221Z,11.30
2019-03-13T02:04:37.707Z,8.80
2019-03-13T02:07:07.210Z,9.60
2019-03-13T02:09:36.699Z,11.37
2019-03-13T02:12:06.133Z,9.73
2019-03-13T02:14:35.621Z,7.20
2019-03-13T02:17:05.046Z,9.97
2019-03-13T02:19:34.514Z,8.90
2019-03-13T02:22:03.967Z,11.20
2019-03-13T02:24:33.431Z,9.63
2019-03-13T02:27:02.940Z,8.40
2019-03-13T02:29:32.471Z,9.97
2019-03-13T02:32:01.920Z,11.93
2019-03-13T02:34:31.397Z,8.20
2019-03-13T02:37:00.860Z,10.60
2019-03-13T02:39:31.432Z,9.37
2019-03-13T02:42:00.826Z,8.73
2019-03-13T02:44:31.354Z,10.00
2019-03-13T02:47:00.796Z,11.27
2019-03-13T02:49:30.337Z,15.43
2019-03-13T02:51:59.829Z,11.47
2019-03-13T02:54:29.321Z,10.13
2019-03-13T02:56:58.760Z,9.10
2019-03-13T02:59:28.242Z,12.73
2019-03-13T03:01:59.337Z,11.70
2019-03-13T03:04:28.806Z,11.53
2019-03-13T03:06:58.242Z,13.50
2019-03-13T03:09:27.711Z,10.27
2019-03-13T03:11:57.182Z,15.13
2019-03-13T03:14:26.680Z,14.67
2019-03-13T03:16:56.134Z,13.67
2019-03-13T03:19:25.622Z,17.13
2019-03-13T03:21:55.039Z,9.37
2019-03-13T03:24:24.507Z,13.50
2019-03-13T03:26:53.946Z,11.83
2019-03-13T03:29:23.413Z,15.53
2019-03-13T03:31:53.831Z,11.23
2019-03-13T03:34:23.299Z,12.97
2019-03-13T03:36:52.814Z,11.87
2019-03-13T03:39:22.301Z,20.00
2019-03-13T03:41:51.775Z,11.30
2019-03-13T03:44:21.240Z,12.93
2019-03-13T03:46:50.708Z,13.17
2019-03-13T03:49:20.159Z,9.73
2019-03-13T03:51:49.606Z,12.13
2019-03-13T03:54:19.052Z,13.23
2019-03-13T03:56:48.507Z,14.80
2019-03-13T03:59:17.945Z,15.83
2019-03-13T04:01:47.795Z,8.07
2019-03-13T04:04:17.238Z,13.60
2019-03-13T04:06:46.713Z,11.23
2019-03-13T04:09:16.266Z,12.60
2019-03-13T04:11:45.718Z,8.20
2019-03-13T04:14:15.437Z,11.53
2019-03-13T04:16:44.931Z,11.93
2019-03-13T04:19:14.379Z,14.97
2019-03-13T04:21:43.837Z,15.87
2019-03-13T04:24:13.278Z,12.33
2019-03-13T04:26:44.449Z,7.20
2019-03-13T04:29:13.972Z,11.10
2019-03-13T04:31:43.439Z,10.90
2019-03-13T04:34:12.888Z,13.50
2019-03-13T04:36:42.348Z,13.03
2019-03-13T04:39:11.798Z,17.67
2019-03-13T04:41:41.258Z,10.23
2019-03-13T04:44:10.707Z,12.57
2019-03-13T04:46:40.166Z,7.93
2019-03-13T04:49:09.596Z,7.40
2019-03-13T04:51:39.057Z,5.60
2019-03-13T04:54:08.494Z,6.77
2019-03-13T04:56:37.948Z,12.23
2019-03-13T04:59:07.385Z,11.23
2019-03-13T05:01:36.857Z,9.53
2019-03-13T05:04:06.305Z,15.17
2019-03-13T05:06:35.842Z,6.80
2019-03-13T05:09:06.149Z,10.53
2019-03-13T05:11:36.681Z,10.30
2019-03-13T05:14:06.125Z,15.23
2019-03-13T05:16:35.586Z,9.50
2019-03-13T05:19:05.159Z,11.63
2019-03-13T05:21:34.599Z,14.97
2019-03-13T05:24:05.184Z,5.77
2019-03-13T05:26:34.645Z,9.23
2019-03-13T05:29:04.354Z,9.53
2019-03-13T05:31:33.817Z,13.37
2019-03-13T05:34:04.405Z,19.97
2019-03-13T05:36:33.881Z,16.37
2019-03-13T05:39:05.088Z,8.33
2019-03-13T05:41:34.624Z,9.73
2019-03-13T05:44:05.215Z,18.60
2019-03-13T05:46:34.682Z,22.60
2019-03-13T05:49:04.222Z,15.03
2019-03-13T05:51:33.697Z,11.73
2019-03-13T05:54:03.145Z,13.27
2019-03-13T05:56:32.601Z,11.03
2019-03-13T05:59:02.046Z,18.07
2019-03-13T06:01:31.510Z,12.50
2019-03-13T06:04:00.958Z,6.70
2019-03-13T06:06:30.421Z,12.23
2019-03-13T06:08:59.857Z,6.63
2019-03-13T06:11:29.323Z,11.37
2019-03-13T06:13:58.761Z,12.27
2019-03-13T06:16:28.221Z,14.33
2019-03-13T06:18:57.661Z,12.97
2019-03-13T06:21:27.134Z,12.67
2019-03-13T06:23:56.569Z,14.80
2019-03-13T06:26:26.040Z,11.80
2019-03-13T06:28:55.493Z,15.10
2019-03-13T06:31:24.968Z,10.30
2019-03-13T06:33:54.401Z,7.63
2019-03-13T06:36:23.881Z,14.10
2019-03-13T06:38:53.313Z,9.03
2019-03-13T06:41:22.758Z,12.27
2019-03-13T06:43:52.217Z,8.60
2019-03-13T06:46:21.660Z,11.00
2019-03-13T06:48:51.122Z,17.47
2019-03-13T06:51:20.570Z,14.43
2019-03-13T06:53:50.029Z,10.53
2019-03-13T06:56:19.473Z,10.07
2019-03-13T06:58:53.285Z,18.43
2019-03-13T07:01:42.643Z,19.63
2019-03-13T07:04:13.726Z,12.27
2019-03-13T07:06:45.134Z,15.63
2019-03-13T07:09:16.219Z,12.90
2019-03-13T07:11:56.171Z,13.87
2019-03-13T07:14:27.257Z,14.00
2019-03-13T07:17:14.274Z,20.50
2019-03-13T07:19:45.357Z,10.40
2019-03-13T07:22:16.462Z,11.50
2019-03-13T07:24:47.562Z,18.30
2019-03-13T07:27:24.470Z,15.00
2019-03-13T07:30:04.619Z,8.80
2019-03-13T07:32:38.675Z,15.67
2019-03-13T07:35:28.417Z,15.17
2019-03-13T07:37:59.517Z,13.93
2019-03-13T07:40:36.339Z,14.43
2019-03-13T07:43:07.511Z,14.77
2019-03-13T07:45:50.757Z,17.70
2019-03-13T07:48:24.599Z,13.07
2019-03-13T07:50:55.678Z,5.90
2019-03-13T07:53:29.593Z,10.07
2019-03-13T07:56:03.468Z,9.70
2019-03-13T07:58:34.574Z,14.33
2019-03-13T08:01:08.400Z,18.43
2019-03-13T08:03:44.996Z,18.37
2019-03-13T08:06:18.820Z,21.60
2019-03-13T08:08:49.921Z,16.37
2019-03-13T08:11:21.001Z,13.33
2019-03-13T08:13:55.063Z,9.23
2019-03-13T08:16:42.290Z,10.77
2019-03-13T08:19:13.395Z,10.27
2019-03-13T08:21:56.265Z,7.80
2019-03-13T08:24:32.950Z,12.33
2019-03-13T08:27:10.029Z,13.20
2019-03-13T08:29:57.737Z,7.03
2019-03-13T08:32:28.809Z,8.53
2019-03-13T08:34:59.919Z,14.70
2019-03-13T08:37:41.946Z,11.20
2019-03-13T08:40:13.860Z,4.90
2019-03-13T08:43:01.391Z,14.47
2019-03-13T08:45:32.478Z,12.97
2019-03-13T08:48:12.760Z,10.27
2019-03-13T08:50:46.841Z,9.90
2019-03-13T08:53:17.944Z,8.77
2019-03-13T08:55:49.029Z,13.40
2019-03-13T08:58:20.134Z,6.07
2019-03-13T09:00:54.281Z,9.30
2019-03-13T09:03:25.388Z,9.07
2019-03-13T09:06:14.727Z,10.43
2019-03-13T09:09:03.905Z,9.40
2019-03-13T09:11:36.538Z,12.77
2019-03-13T09:14:16.389Z,10.37
2019-03-13T09:17:03.739Z,20.37
2019-03-13T09:19:50.803Z,10.93
2019-03-13T09:22:30.990Z,22.63
2019-03-13T09:25:11.942Z,11.27
2019-03-13T09:27:37.570Z,11.10
2019-03-13T09:30:14.826Z,10.47
2019-03-13T09:32:57.634Z,11.10
2019-03-13T09:35:28.745Z,8.73
2019-03-13T09:38:15.986Z,9.80
2019-03-13T09:40:49.844Z,6.50
2019-03-13T09:43:20.910Z,8.93
2019-03-13T09:45:57.835Z,10.57
2019-03-13T09:48:38.256Z,5.53
2019-03-13T09:51:09.362Z,5.73
2019-03-13T09:53:40.451Z,10.23
2019-03-13T09:56:17.244Z,11.00
2019-03-13T09:58:48.339Z,12.13
2019-03-13T10:01:35.995Z,9.97
2019-03-13T10:04:09.825Z,10.87
2019-03-13T10:06:49.891Z,11.10
2019-03-13T10:09:26.911Z,7.10
2019-03-13T10:12:01.169Z,6.97
2019-03-13T10:14:35.418Z,13.37
2019-03-13T10:17:24.638Z,11.97
2019-03-13T10:19:58.446Z,7.30
2019-03-13T10:22:32.037Z,14.20
2019-03-13T10:25:17.922Z,9.57
2019-03-13T10:27:49.014Z,14.30
2019-03-13T10:30:23.037Z,11.87
2019-03-13T10:32:57.080Z,10.80
2019-03-13T10:35:28.188Z,9.50
2019-03-13T10:38:13.206Z,6.13
2019-03-13T10:40:51.130Z,8.00
2019-03-13T10:43:27.951Z,7.33
2019-03-13T10:46:15.485Z,15.87
2019-03-13T10:48:46.647Z,14.13
2019-03-13T10:51:17.759Z,10.20
2019-03-13T10:53:51.517Z,11.87
2019-03-13T10:56:31.277Z,8.47
2019-03-13T10:59:05.293Z,11.93
2019-03-13T11:01:51.351Z,7.50
2019-03-13T11:04:24.092Z,6.70
2019-03-13T11:06:55.597Z,7.70
2019-03-13T11:09:41.697Z,6.73
2019-03-13T11:12:27.728Z,2.70
2019-03-13T11:15:14.018Z,8.27
2019-03-13T11:17:45.090Z,7.10
2019-03-13T11:20:16.195Z,7.97
2019-03-13T11:22:50.450Z,4.83
2019-03-13T11:25:30.625Z,11.30
2019-03-13T11:28:04.269Z,13.13
2019-03-13T11:30:51.521Z,6.97
2019-03-13T11:33:22.602Z,10.10
2019-03-13T11:35:56.769Z,7.63
2019-03-13T11:38:44.083Z,4.73
2019-03-13T11:41:18.295Z,7.37
2019-03-13T11:44:01.392Z,6.77
2019-03-13T11:46:35.182Z,3.70
2019-03-13T11:49:09.301Z,4.10
2019-03-13T11:51:46.142Z,6.50
2019-03-13T11:54:23.197Z,7.40
2019-03-13T11:57:00.525Z,4.80
2019-03-13T11:59:31.610Z,5.17
2019-03-13T12:02:02.727Z,7.43
2019-03-13T12:04:50.277Z,13.03
2019-03-13T12:07:33.314Z,5.67
2019-03-13T12:10:07.482Z,8.10
2019-03-13T12:12:38.757Z,11.97
2019-03-13T12:15:30.912Z,7.00
2019-03-13T12:18:01.989Z,6.43
2019-03-13T12:20:33.089Z,12.33
2019-03-13T12:23:04.173Z,6.10
2019-03-13T12:25:51.314Z,9.83
2019-03-13T12:28:28.307Z,7.97
2019-03-13T12:31:03.390Z,7.77
2019-03-13T12:33:37.154Z,8.87
2019-03-13T12:36:23.369Z,6.47
2019-03-13T12:38:54.451Z,6.80
2019-03-13T12:41:25.552Z,6.50
2019-03-13T12:43:59.397Z,13.20
2019-03-13T12:46:30.497Z,15.57
2019-03-13T12:49:19.598Z,4.47
2019-03-13T12:51:50.698Z,10.70
2019-03-13T12:54:24.537Z,9.83
2019-03-13T12:57:11.849Z,7.23
2019-03-13T12:59:54.750Z,7.27
2019-03-13T13:02:28.506Z,8.00
2019-03-13T13:05:11.802Z,9.93
2019-03-13T13:07:48.598Z,7.10
2019-03-13T13:10:19.741Z,7.30
2019-03-13T13:12:53.450Z,9.60
2019-03-13T13:15:24.526Z,8.50
2019-03-13T13:17:55.625Z,5.13
2019-03-13T13:20:25.066Z,10.93
2019-03-13T13:22:54.542Z,7.00
2019-03-13T13:25:23.987Z,7.33
2019-03-13T13:27:53.449Z,13.27
2019-03-13T13:30:22.899Z,11.83
2019-03-13T13:32:52.350Z,8.90
2019-03-13T13:35:21.870Z,10.53
2019-03-13T13:37:51.329Z,16.73
2019-03-13T13:40:20.773Z,9.20
2019-03-13T13:42:50.231Z,6.47
2019-03-13T13:45:34.625Z,3.50
2019-03-13T13:48:04.159Z,5.73
2019-03-13T13:50:33.589Z,4.33
2019-03-13T13:53:03.047Z,3.20
2019-03-13T13:55:33.465Z,11.70
2019-03-13T13:58:02.921Z,4.70
2019-03-13T14:00:32.365Z,7.80
2019-03-13T14:03:01.834Z,8.90
2019-03-13T14:05:31.270Z,8.07
2019-03-13T14:08:00.726Z,5.17
2019-03-13T14:10:30.170Z,7.37
2019-03-13T14:12:59.635Z,9.47
2019-03-13T14:15:29.073Z,6.73
2019-03-13T14:18:00.220Z,5.13
2019-03-13T14:20:29.589Z,6.23
2019-03-13T14:22:59.042Z,7.47
2019-03-13T14:25:28.486Z,2.63
2019-03-13T14:27:58.010Z,5.27
2019-03-13T14:30:27.446Z,6.63
2019-03-13T14:32:56.905Z,10.53
2019-03-13T14:35:26.350Z,8.80
2019-03-13T14:37:55.805Z,5.53
2019-03-13T14:40:25.246Z,11.93
2019-03-13T14:42:54.711Z,7.13
2019-03-13T14:45:24.149Z,9.13
2019-03-13T14:47:53.677Z,5.30
2019-03-13T14:50:23.485Z,3.93
2019-03-13T14:52:52.979Z,8.97
2019-03-13T14:55:22.667Z,6.13
2019-03-13T14:57:52.201Z,5.70
2019-03-13T15:00:25.652Z,10.50
2019-03-13T15:02:55.181Z,5.87
2019-03-13T15:05:24.621Z,8.33
2019-03-13T15:07:54.079Z,3.77
2019-03-13T15:10:23.591Z,12.73
2019-03-13T15:12:53.051Z,8.13
2019-03-13T15:15:23.436Z,11.73
2019-03-13T15:17:53.562Z,4.67
2019-03-13T15:20:24.374Z,4.13
2019-03-13T15:22:53.843Z,5.43
2019-03-13T15:25:23.281Z,4.83
2019-03-13T15:27:52.740Z,6.63
2019-03-13T15:30:24.762Z,8.13
2019-03-13T15:32:54.215Z,8.00
2019-03-13T15:35:23.731Z,7.70
2019-03-13T15:37:53.199Z,9.33
2019-03-13T15:40:22.718Z,8.87
2019-03-13T15:42:52.252Z,13.70
2019-03-13T15:45:31.354Z,9.27
2019-03-13T15:48:00.818Z,8.17
2019-03-13T15:50:30.330Z,12.77
2019-03-13T15:52:59.790Z,14.17
2019-03-13T15:55:29.234Z,8.90
2019-03-13T15:57:58.706Z,11.60
2019-03-13T16:00:32.524Z,10.23
2019-03-13T16:03:02.002Z,13.00
2019-03-13T16:05:31.440Z,7.87
2019-03-13T16:08:00.878Z,7.97
2019-03-13T16:10:30.335Z,13.40
2019-03-13T16:13:01.581Z,11.30
2019-03-13T16:15:35.123Z,10.07
2019-03-13T16:18:05.006Z,11.03
2019-03-13T16:20:34.606Z,9.10
2019-03-13T16:23:04.131Z,15.07
2019-03-13T16:25:33.598Z,6.07
2019-03-13T16:28:03.246Z,7.67
2019-03-13T16:30:46.591Z,8.40
2019-03-13T16:33:16.277Z,10.63
2019-03-13T16:35:45.934Z,8.07
2019-03-13T16:38:17.910Z,4.23
2019-03-13T16:40:48.193Z,6.87
2019-03-13T16:43:18.329Z,7.33
2019-03-13T16:45:47.890Z,11.83
2019-03-13T16:48:17.531Z,7.60
2019-03-13T16:50:47.577Z,9.93
2019-03-13T16:53:17.197Z,9.03
2019-03-13T16:55:46.752Z,9.50
2019-03-13T16:58:16.130Z,7.40
2019-03-13T17:00:45.614Z,8.03
2019-03-13T17:03:15.143Z,9.17
2019-03-13T17:05:44.605Z,6.13
2019-03-13T17:08:14.050Z,11.80
2019-03-13T17:10:43.514Z,6.40
2019-03-13T17:13:12.945Z,8.23
2019-03-13T17:15:42.407Z,7.80
2019-03-13T17:18:11.909Z,4.50
2019-03-13T17:20:42.915Z,7.40
2019-03-13T17:23:12.351Z,7.30
2019-03-13T17:25:41.814Z,7.43
2019-03-13T17:28:11.249Z,5.27
2019-03-13T17:30:40.769Z,9.77
2019-03-13T17:33:10.206Z,4.03
2019-03-13T17:35:39.671Z,7.13
2019-03-13T17:38:09.112Z,6.53
2019-03-13T17:40:39.215Z,5.73
2019-03-13T17:43:08.659Z,5.83
2019-03-13T17:45:38.118Z,7.60
2019-03-13T17:48:07.704Z,11.90
2019-03-13T17:50:37.244Z,9.47
2019-03-13T17:53:06.699Z,7.53
2019-03-13T17:55:36.157Z,11.83
2019-03-13T17:58:05.604Z,12.50
2019-03-13T18:00:53.660Z,8.73
2019-03-13T18:03:24.535Z,13.90
2019-03-13T18:05:54.009Z,7.80
2019-03-13T18:08:23.441Z,15.63
2019-03-13T18:10:52.904Z,9.17
2019-03-13T18:13:22.435Z,7.00
2019-03-13T18:15:52.279Z,11.27
2019-03-13T18:18:21.714Z,9.83
2019-03-13T18:20:51.169Z,10.57
2019-03-13T18:23:20.620Z,18.13
2019-03-13T18:25:50.077Z,9.80
2019-03-13T18:28:19.522Z,10.13
2019-03-13T18:30:48.990Z,13.00
2019-03-13T18:33:18.430Z,11.33
2019-03-13T18:35:47.900Z,12.93
2019-03-13T18:38:17.365Z,11.93
2019-03-13T18:40:46.801Z,30.40
2019-03-13T18:43:16.250Z,15.43
2019-03-13T18:45:45.715Z,14.67
2019-03-13T18:48:15.162Z,14.03
2019-03-13T18:50:44.621Z,7.90
2019-03-13T18:53:14.061Z,14.57
2019-03-13T18:55:43.525Z,8.73
2019-03-13T18:58:14.120Z,15.30
2019-03-13T19:00:43.837Z,11.27
2019-03-13T19:03:13.365Z,9.87
2019-03-13T19:05:42.897Z,13.30
2019-03-13T19:08:12.348Z,12.20
2019-03-13T19:10:42.963Z,10.67
2019-03-13T19:13:13.353Z,15.00
2019-03-13T19:15:43.170Z,13.17
2019-03-13T19:18:14.360Z,12.73
2019-03-13T19:20:43.813Z,15.37
2019-03-13T19:23:14.439Z,14.37
2019-03-13T19:25:44.021Z,20.83
2019-03-13T19:28:32.957Z,13.07
2019-03-13T19:31:02.419Z,18.47
2019-03-13T19:33:31.858Z,15.93
2019-03-13T19:36:01.322Z,11.63
2019-03-13T19:38:30.777Z,14.73
2019-03-13T19:41:00.233Z,19.93
2019-03-13T19:43:29.681Z,16.90
2019-03-13T19:45:59.151Z,8.57
2019-03-13T19:48:28.782Z,17.07
2019-03-13T19:50:58.248Z,13.70
2019-03-13T19:53:27.689Z,15.23
2019-03-13T19:55:57.148Z,10.27
2019-03-13T19:58:26.589Z,12.30
2019-03-13T20:00:56.068Z,8.93
2019-03-13T20:03:25.561Z,7.30
2019-03-13T20:05:55.023Z,16.03
2019-03-13T20:08:24.463Z,14.47
2019-03-13T20:10:53.924Z,10.17
2019-03-13T20:13:23.371Z,20.00
2019-03-13T20:15:52.901Z,16.37
2019-03-13T20:18:22.346Z,19.07
2019-03-13T20:20:51.826Z,14.00
2019-03-13T20:23:21.338Z,20.20
2019-03-13T20:25:50.794Z,15.03
2019-03-13T20:28:20.334Z,20.00
2019-03-13T20:30:49.846Z,9.70
2019-03-13T20:33:19.478Z,20.70
2019-03-13T20:35:48.922Z,16.17
2019-03-13T20:38:18.455Z,15.13
2019-03-13T20:40:47.965Z,19.57
2019-03-13T20:43:17.497Z,6.77
2019-03-13T20:45:46.960Z,15.80
2019-03-13T20:48:16.524Z,21.73
2019-03-13T20:50:45.922Z,23.53
2019-03-13T20:53:15.389Z,17.60
2019-03-13T20:55:44.897Z,22.87
2019-03-13T20:58:14.432Z,12.67
2019-03-13T21:00:43.870Z,22.93
2019-03-13T21:03:13.338Z,13.23
2019-03-13T21:05:42.782Z,17.07
2019-03-13T21:08:12.247Z,17.33
2019-03-13T21:10:42.553Z,13.83
2019-03-13T21:13:12.017Z,18.00
2019-03-13T21:15:43.767Z,7.60
2019-03-13T21:18:12.691Z,19.80
2019-03-13T21:20:42.151Z,12.07
2019-03-13T21:23:11.666Z,18.57
2019-03-13T21:25:41.109Z,17.80
2019-03-13T21:31:06.970Z,19.03
2019-03-13T21:33:36.520Z,17.73
2019-03-13T21:36:05.975Z,18.83
2019-03-13T21:38:36.442Z,17.50
2019-03-13T21:41:05.896Z,26.73
2019-03-13T21:43:35.379Z,13.97
2019-03-13T21:46:06.771Z,15.27
2019-03-13T21:48:35.926Z,25.53
2019-03-13T21:51:05.579Z,11.83
2019-03-13T21:53:35.024Z,18.60
2019-03-13T21:56:05.525Z,22.43
2019-03-13T21:58:35.018Z,18.43
2019-03-13T22:01:04.531Z,14.80
2019-03-13T22:03:34.061Z,21.63
2019-03-13T22:06:03.513Z,16.13
2019-03-13T22:08:33.057Z,23.93
2019-03-13T22:11:02.496Z,30.13
2019-03-13T22:13:32.027Z,22.47
2019-03-13T22:16:02.566Z,27.37
2019-03-13T22:18:32.090Z,13.00
2019-03-13T22:21:01.535Z,25.03
2019-03-13T22:23:31.002Z,23.57
2019-03-13T22:26:00.438Z,22.63
2019-03-13T22:28:29.914Z,30.47
2019-03-13T22:31:02.545Z,19.43
2019-03-13T22:33:30.510Z,16.87
2019-03-13T22:35:59.954Z,23.53
2019-03-13T22:38:29.428Z,20.93
2019-03-13T22:40:58.868Z,21.17
2019-03-13T22:43:28.329Z,28.53
2019-03-13T22:45:57.790Z,19.77
2019-03-13T22:48:27.283Z,16.10
2019-03-13T22:50:56.792Z,26.53
2019-03-13T22:53:26.282Z,24.27
2019-03-13T22:55:55.725Z,20.10
2019-03-13T22:58:25.225Z,27.70
2019-03-13T23:01:02.303Z,16.87
2019-03-13T23:03:33.384Z,21.07
2019-03-13T23:06:03.030Z,10.20
2019-03-13T23:08:32.528Z,8.17
2019-03-13T23:11:02.945Z,16.70
2019-03-13T23:13:32.480Z,20.93
2019-03-13T23:16:01.947Z,15.03
2019-03-13T23:18:31.408Z,17.20
2019-03-13T23:21:00.845Z,21.63
2019-03-13T23:23:30.333Z,23.53
2019-03-13T23:25:59.846Z,24.97
2019-03-13T23:28:29.382Z,18.30
2019-03-13T23:30:58.821Z,28.43
2019-03-13T23:33:28.286Z,25.07
2019-03-13T23:35:57.726Z,25.70
2019-03-13T23:38:27.199Z,22.60
2019-03-13T23:40:56.735Z,23.37
2019-03-13T23:43:26.205Z,26.13
2019-03-13T23:45:56.618Z,24.27
2019-03-13T23:48:26.083Z,25.63
2019-03-13T23:50:55.528Z,27.03
2019-03-13T23:53:24.993Z,14.37
2019-03-13T23:55:54.441Z,26.23
2019-03-13T23:58:23.905Z,21.33
